sensor_id;sensor_type;location;lat;lon;timestamp;temperature;humidity
37658;DHT22;23500;53.268;8.308;2022-10-16T00:01:18;18.50;77.80
37658;DHT22;23500;53.268;8.308;2022-10-16T00:03:45;18.50;78.00
37658;DHT22;23500;53.268;8.308;2022-10-16T00:06:12;18.50;78.20
37658;DHT22;23500;53.268;8.308;2022-10-16T00:08:37;18.40;78.40
37658;DHT22;23500;53.268;8.308;2022-10-16T00:11:15;18.50;76.20
37658;DHT22;23500;53.268;8.308;2022-10-16T00:13:43;18.40;76.30
37658;DHT22;23500;53.268;8.308;2022-10-16T00:16:10;18.40;76.30
37658;DHT22;23500;53.268;8.308;2022-10-16T00:18:37;18.40;76.30
37658;DHT22;23500;53.268;8.308;2022-10-16T00:23:33;18.30;76.00
37658;DHT22;23500;53.268;8.308;2022-10-16T00:26:02;18.40;76.10
37658;DHT22;23500;53.268;8.308;2022-10-16T00:28:29;18.40;76.10
37658;DHT22;23500;53.268;8.308;2022-10-16T00:30:54;18.30;75.70
37658;DHT22;23500;53.268;8.308;2022-10-16T00:33:21;18.30;75.70
37658;DHT22;23500;53.268;8.308;2022-10-16T00:35:47;18.30;76.70
37658;DHT22;23500;53.268;8.308;2022-10-16T00:38:13;18.30;77.70
37658;DHT22;23500;53.268;8.308;2022-10-16T00:40:39;18.30;77.80
37658;DHT22;23500;53.268;8.308;2022-10-16T00:45:56;18.30;78.30
37658;DHT22;23500;53.268;8.308;2022-10-16T00:48:21;18.30;78.40
37658;DHT22;23500;53.268;8.308;2022-10-16T00:50:47;18.30;78.40
37658;DHT22;23500;53.268;8.308;2022-10-16T00:53:14;18.30;78.60
37658;DHT22;23500;53.268;8.308;2022-10-16T00:55:41;18.30;78.40
37658;DHT22;23500;53.268;8.308;2022-10-16T00:58:06;18.20;78.60
37658;DHT22;23500;53.268;8.308;2022-10-16T01:00:32;18.20;78.70
37658;DHT22;23500;53.268;8.308;2022-10-16T01:03:01;18.20;78.70
37658;DHT22;23500;53.268;8.308;2022-10-16T01:05:38;18.20;78.70
37658;DHT22;23500;53.268;8.308;2022-10-16T01:08:17;18.20;78.80
37658;DHT22;23500;53.268;8.308;2022-10-16T01:13:21;18.20;78.70
37658;DHT22;23500;53.268;8.308;2022-10-16T01:15:54;18.10;78.70
37658;DHT22;23500;53.268;8.308;2022-10-16T01:21:04;18.20;78.60
37658;DHT22;23500;53.268;8.308;2022-10-16T01:28:51;18.10;78.70
37658;DHT22;23500;53.268;8.308;2022-10-16T01:31:23;18.10;78.80
37658;DHT22;23500;53.268;8.308;2022-10-16T01:34:10;18.10;78.60
37658;DHT22;23500;53.268;8.308;2022-10-16T01:36:45;18.10;78.30
37658;DHT22;23500;53.268;8.308;2022-10-16T01:39:13;18.10;78.40
37658;DHT22;23500;53.268;8.308;2022-10-16T01:41:46;18.10;78.20
37658;DHT22;23500;53.268;8.308;2022-10-16T01:44:17;18.10;78.20
37658;DHT22;23500;53.268;8.308;2022-10-16T01:46:48;18.10;78.40
37658;DHT22;23500;53.268;8.308;2022-10-16T01:49:16;18.10;78.30
37658;DHT22;23500;53.268;8.308;2022-10-16T01:51:45;18.00;77.90
37658;DHT22;23500;53.268;8.308;2022-10-16T01:54:14;18.10;77.90
37658;DHT22;23500;53.268;8.308;2022-10-16T01:56:41;18.00;77.70
37658;DHT22;23500;53.268;8.308;2022-10-16T01:59:13;18.00;77.70
37658;DHT22;23500;53.268;8.308;2022-10-16T02:01:42;18.00;78.00
37658;DHT22;23500;53.268;8.308;2022-10-16T02:06:48;18.00;78.40
37658;DHT22;23500;53.268;8.308;2022-10-16T02:09:14;18.00;78.20
37658;DHT22;23500;53.268;8.308;2022-10-16T02:11:42;18.00;78.30
37658;DHT22;23500;53.268;8.308;2022-10-16T02:14:08;18.00;78.70
37658;DHT22;23500;53.268;8.308;2022-10-16T02:16:45;18.00;78.30
37658;DHT22;23500;53.268;8.308;2022-10-16T02:19:17;18.00;78.20
37658;DHT22;23500;53.268;8.308;2022-10-16T02:21:58;18.00;78.20
37658;DHT22;23500;53.268;8.308;2022-10-16T02:25:04;18.00;78.30
37658;DHT22;23500;53.268;8.308;2022-10-16T02:30:27;18.00;78.10
37658;DHT22;23500;53.268;8.308;2022-10-16T02:32:55;17.90;78.10
37658;DHT22;23500;53.268;8.308;2022-10-16T02:35:22;17.90;78.20
37658;DHT22;23500;53.268;8.308;2022-10-16T02:37:49;17.90;78.50
37658;DHT22;23500;53.268;8.308;2022-10-16T02:40:17;17.90;78.30
37658;DHT22;23500;53.268;8.308;2022-10-16T02:42:42;17.90;78.40
37658;DHT22;23500;53.268;8.308;2022-10-16T02:45:10;17.90;78.20
37658;DHT22;23500;53.268;8.308;2022-10-16T02:47:36;17.90;78.30
37658;DHT22;23500;53.268;8.308;2022-10-16T02:50:03;17.90;78.50
37658;DHT22;23500;53.268;8.308;2022-10-16T02:52:28;17.90;77.90
37658;DHT22;23500;53.268;8.308;2022-10-16T02:54:54;17.90;78.50
37658;DHT22;23500;53.268;8.308;2022-10-16T02:57:20;17.90;78.30
37658;DHT22;23500;53.268;8.308;2022-10-16T02:59:45;17.90;78.20
37658;DHT22;23500;53.268;8.308;2022-10-16T03:02:11;17.90;78.40
37658;DHT22;23500;53.268;8.308;2022-10-16T03:04:37;17.90;78.50
37658;DHT22;23500;53.268;8.308;2022-10-16T03:07:02;17.90;78.40
37658;DHT22;23500;53.268;8.308;2022-10-16T03:09:28;17.90;78.80
37658;DHT22;23500;53.268;8.308;2022-10-16T03:11:54;17.90;78.50
37658;DHT22;23500;53.268;8.308;2022-10-16T03:14:19;17.90;78.40
37658;DHT22;23500;53.268;8.308;2022-10-16T03:16:45;17.90;78.60
37658;DHT22;23500;53.268;8.308;2022-10-16T03:19:11;17.90;78.70
37658;DHT22;23500;53.268;8.308;2022-10-16T03:21:36;17.90;78.20
37658;DHT22;23500;53.268;8.308;2022-10-16T03:24:02;17.90;78.40
37658;DHT22;23500;53.268;8.308;2022-10-16T03:26:28;17.90;78.20
37658;DHT22;23500;53.268;8.308;2022-10-16T03:28:53;17.80;78.10
37658;DHT22;23500;53.268;8.308;2022-10-16T03:31:19;17.90;78.40
37658;DHT22;23500;53.268;8.308;2022-10-16T03:33:45;17.80;78.00
37658;DHT22;23500;53.268;8.308;2022-10-16T03:36:10;17.80;78.10
37658;DHT22;23500;53.268;8.308;2022-10-16T03:38:36;17.80;78.20
37658;DHT22;23500;53.268;8.308;2022-10-16T03:41:01;17.80;78.20
37658;DHT22;23500;53.268;8.308;2022-10-16T03:43:27;17.80;78.00
37658;DHT22;23500;53.268;8.308;2022-10-16T03:45:53;17.80;78.30
37658;DHT22;23500;53.268;8.308;2022-10-16T03:48:19;17.80;78.30
37658;DHT22;23500;53.268;8.308;2022-10-16T03:50:45;17.80;78.20
37658;DHT22;23500;53.268;8.308;2022-10-16T03:53:13;17.80;78.10
37658;DHT22;23500;53.268;8.308;2022-10-16T03:55:41;17.80;78.40
37658;DHT22;23500;53.268;8.308;2022-10-16T03:58:07;17.80;78.20
37658;DHT22;23500;53.268;8.308;2022-10-16T04:00:33;17.80;78.30
37658;DHT22;23500;53.268;8.308;2022-10-16T04:02:59;17.80;78.60
37658;DHT22;23500;53.268;8.308;2022-10-16T04:05:25;17.80;78.90
37658;DHT22;23500;53.268;8.308;2022-10-16T04:07:51;17.80;79.30
37658;DHT22;23500;53.268;8.308;2022-10-16T04:10:17;17.80;79.20
37658;DHT22;23500;53.268;8.308;2022-10-16T04:12:42;17.80;79.30
37658;DHT22;23500;53.268;8.308;2022-10-16T04:15:08;17.70;79.10
37658;DHT22;23500;53.268;8.308;2022-10-16T04:17:34;17.80;79.00
37658;DHT22;23500;53.268;8.308;2022-10-16T04:19:59;17.80;79.40
37658;DHT22;23500;53.268;8.308;2022-10-16T04:22:25;17.80;79.40
37658;DHT22;23500;53.268;8.308;2022-10-16T04:24:51;17.80;79.50
37658;DHT22;23500;53.268;8.308;2022-10-16T04:27:16;17.80;79.60
37658;DHT22;23500;53.268;8.308;2022-10-16T04:29:42;17.80;79.60
37658;DHT22;23500;53.268;8.308;2022-10-16T04:32:08;17.80;79.50
37658;DHT22;23500;53.268;8.308;2022-10-16T04:34:34;17.80;79.50
37658;DHT22;23500;53.268;8.308;2022-10-16T04:37:00;17.80;79.40
37658;DHT22;23500;53.268;8.308;2022-10-16T04:39:26;17.80;79.30
37658;DHT22;23500;53.268;8.308;2022-10-16T04:41:51;17.80;79.20
37658;DHT22;23500;53.268;8.308;2022-10-16T04:44:17;17.80;79.30
37658;DHT22;23500;53.268;8.308;2022-10-16T04:46:43;17.80;79.30
37658;DHT22;23500;53.268;8.308;2022-10-16T04:49:09;17.70;78.90
37658;DHT22;23500;53.268;8.308;2022-10-16T04:51:35;17.80;79.10
37658;DHT22;23500;53.268;8.308;2022-10-16T04:54:01;17.70;78.90
37658;DHT22;23500;53.268;8.308;2022-10-16T04:56:27;17.70;79.20
37658;DHT22;23500;53.268;8.308;2022-10-16T04:58:52;17.70;78.90
37658;DHT22;23500;53.268;8.308;2022-10-16T05:01:18;17.70;78.90
37658;DHT22;23500;53.268;8.308;2022-10-16T05:03:44;17.70;78.90
37658;DHT22;23500;53.268;8.308;2022-10-16T05:06:10;17.70;78.90
37658;DHT22;23500;53.268;8.308;2022-10-16T05:08:35;17.70;78.90
37658;DHT22;23500;53.268;8.308;2022-10-16T05:11:01;17.70;78.70
37658;DHT22;23500;53.268;8.308;2022-10-16T05:13:27;17.70;78.90
37658;DHT22;23500;53.268;8.308;2022-10-16T05:15:53;17.70;79.00
37658;DHT22;23500;53.268;8.308;2022-10-16T05:18:18;17.70;79.00
37658;DHT22;23500;53.268;8.308;2022-10-16T05:20:44;17.70;78.80
37658;DHT22;23500;53.268;8.308;2022-10-16T05:23:10;17.70;79.00
37658;DHT22;23500;53.268;8.308;2022-10-16T05:25:37;17.70;79.40
37658;DHT22;23500;53.268;8.308;2022-10-16T05:28:03;17.70;79.40
37658;DHT22;23500;53.268;8.308;2022-10-16T05:30:29;17.70;79.50
37658;DHT22;23500;53.268;8.308;2022-10-16T05:32:54;17.70;79.50
37658;DHT22;23500;53.268;8.308;2022-10-16T05:35:20;17.70;79.40
37658;DHT22;23500;53.268;8.308;2022-10-16T05:37:46;17.70;79.40
37658;DHT22;23500;53.268;8.308;2022-10-16T05:40:12;17.70;79.30
37658;DHT22;23500;53.268;8.308;2022-10-16T05:42:38;17.70;79.30
37658;DHT22;23500;53.268;8.308;2022-10-16T05:45:06;17.70;79.50
37658;DHT22;23500;53.268;8.308;2022-10-16T05:47:32;17.70;79.40
37658;DHT22;23500;53.268;8.308;2022-10-16T05:49:57;17.70;79.20
37658;DHT22;23500;53.268;8.308;2022-10-16T05:52:23;17.70;79.40
37658;DHT22;23500;53.268;8.308;2022-10-16T05:54:49;17.70;79.20
37658;DHT22;23500;53.268;8.308;2022-10-16T05:57:15;17.70;79.40
37658;DHT22;23500;53.268;8.308;2022-10-16T05:59:40;17.70;79.50
37658;DHT22;23500;53.268;8.308;2022-10-16T06:02:11;17.70;79.40
37658;DHT22;23500;53.268;8.308;2022-10-16T06:04:37;17.70;79.60
37658;DHT22;23500;53.268;8.308;2022-10-16T06:07:03;17.70;79.30
37658;DHT22;23500;53.268;8.308;2022-10-16T06:09:29;17.70;79.60
37658;DHT22;23500;53.268;8.308;2022-10-16T06:11:54;17.70;79.40
37658;DHT22;23500;53.268;8.308;2022-10-16T06:14:20;17.70;79.60
37658;DHT22;23500;53.268;8.308;2022-10-16T06:16:45;17.70;79.60
37658;DHT22;23500;53.268;8.308;2022-10-16T06:19:11;17.70;79.60
37658;DHT22;23500;53.268;8.308;2022-10-16T06:21:37;17.70;79.70
37658;DHT22;23500;53.268;8.308;2022-10-16T06:24:03;17.70;79.80
37658;DHT22;23500;53.268;8.308;2022-10-16T06:26:30;17.70;79.80
37658;DHT22;23500;53.268;8.308;2022-10-16T06:28:57;17.70;79.80
37658;DHT22;23500;53.268;8.308;2022-10-16T06:31:23;17.70;79.80
37658;DHT22;23500;53.268;8.308;2022-10-16T06:33:53;17.70;79.80
37658;DHT22;23500;53.268;8.308;2022-10-16T06:36:20;17.70;79.80
37658;DHT22;23500;53.268;8.308;2022-10-16T06:38:46;17.70;79.80
37658;DHT22;23500;53.268;8.308;2022-10-16T06:41:14;17.70;79.80
37658;DHT22;23500;53.268;8.308;2022-10-16T06:43:40;17.70;79.80
37658;DHT22;23500;53.268;8.308;2022-10-16T06:46:07;17.70;79.80
37658;DHT22;23500;53.268;8.308;2022-10-16T06:48:34;17.70;79.00
37658;DHT22;23500;53.268;8.308;2022-10-16T06:51:05;17.70;78.60
37658;DHT22;23500;53.268;8.308;2022-10-16T06:53:33;17.70;78.40
37658;DHT22;23500;53.268;8.308;2022-10-16T06:56:10;17.70;78.30
37658;DHT22;23500;53.268;8.308;2022-10-16T06:58:36;17.70;78.20
37658;DHT22;23500;53.268;8.308;2022-10-16T07:01:03;17.70;78.20
37658;DHT22;23500;53.268;8.308;2022-10-16T07:03:29;17.70;78.20
37658;DHT22;23500;53.268;8.308;2022-10-16T07:05:54;17.70;78.30
37658;DHT22;23500;53.268;8.308;2022-10-16T07:08:20;17.70;78.40
37658;DHT22;23500;53.268;8.308;2022-10-16T07:10:46;17.70;78.40
37658;DHT22;23500;53.268;8.308;2022-10-16T07:13:11;17.70;78.40
37658;DHT22;23500;53.268;8.308;2022-10-16T07:15:40;17.70;78.50
37658;DHT22;23500;53.268;8.308;2022-10-16T07:18:06;17.70;78.40
37658;DHT22;23500;53.268;8.308;2022-10-16T07:20:31;17.70;78.50
37658;DHT22;23500;53.268;8.308;2022-10-16T07:22:57;17.70;78.50
37658;DHT22;23500;53.268;8.308;2022-10-16T07:25:23;17.70;78.70
37658;DHT22;23500;53.268;8.308;2022-10-16T07:27:48;17.70;78.70
37658;DHT22;23500;53.268;8.308;2022-10-16T07:30:14;17.70;78.70
37658;DHT22;23500;53.268;8.308;2022-10-16T07:32:40;17.70;78.70
37658;DHT22;23500;53.268;8.308;2022-10-16T07:35:06;17.70;78.70
37658;DHT22;23500;53.268;8.308;2022-10-16T07:37:31;17.70;78.40
37658;DHT22;23500;53.268;8.308;2022-10-16T07:39:57;17.70;78.60
37658;DHT22;23500;53.268;8.308;2022-10-16T07:42:23;17.80;78.50
37658;DHT22;23500;53.268;8.308;2022-10-16T07:44:48;17.80;78.50
37658;DHT22;23500;53.268;8.308;2022-10-16T07:47:14;17.70;78.50
37658;DHT22;23500;53.268;8.308;2022-10-16T07:49:39;17.80;78.60
37658;DHT22;23500;53.268;8.308;2022-10-16T07:52:05;17.80;78.50
37658;DHT22;23500;53.268;8.308;2022-10-16T07:54:31;17.80;78.40
37658;DHT22;23500;53.268;8.308;2022-10-16T07:56:56;17.80;78.30
37658;DHT22;23500;53.268;8.308;2022-10-16T07:59:22;17.90;78.50
37658;DHT22;23500;53.268;8.308;2022-10-16T08:01:49;17.90;78.40
37658;DHT22;23500;53.268;8.308;2022-10-16T08:04:15;17.90;78.30
37658;DHT22;23500;53.268;8.308;2022-10-16T08:06:41;17.90;78.30
37658;DHT22;23500;53.268;8.308;2022-10-16T08:09:07;17.90;78.90
37658;DHT22;23500;53.268;8.308;2022-10-16T08:11:33;17.90;78.00
37658;DHT22;23500;53.268;8.308;2022-10-16T08:13:58;17.90;78.20
37658;DHT22;23500;53.268;8.308;2022-10-16T08:16:24;17.90;78.20
37658;DHT22;23500;53.268;8.308;2022-10-16T08:18:50;17.90;78.20
37658;DHT22;23500;53.268;8.308;2022-10-16T08:21:18;18.00;78.20
37658;DHT22;23500;53.268;8.308;2022-10-16T08:23:44;18.00;78.40
37658;DHT22;23500;53.268;8.308;2022-10-16T08:26:10;18.00;78.30
37658;DHT22;23500;53.268;8.308;2022-10-16T08:28:37;18.00;78.10
37658;DHT22;23500;53.268;8.308;2022-10-16T08:31:07;18.00;78.10
37658;DHT22;23500;53.268;8.308;2022-10-16T08:33:33;18.00;77.90
37658;DHT22;23500;53.268;8.308;2022-10-16T08:36:00;18.00;77.90
37658;DHT22;23500;53.268;8.308;2022-10-16T08:38:26;18.00;77.90
37658;DHT22;23500;53.268;8.308;2022-10-16T08:40:57;18.00;77.80
37658;DHT22;23500;53.268;8.308;2022-10-16T08:43:38;18.00;77.90
37658;DHT22;23500;53.268;8.308;2022-10-16T08:46:21;18.00;77.90
37658;DHT22;23500;53.268;8.308;2022-10-16T08:48:53;18.00;77.70
37658;DHT22;23500;53.268;8.308;2022-10-16T08:51:25;18.00;77.90
37658;DHT22;23500;53.268;8.308;2022-10-16T08:54:03;18.00;77.90
37658;DHT22;23500;53.268;8.308;2022-10-16T08:56:29;18.00;78.10
37658;DHT22;23500;53.268;8.308;2022-10-16T08:58:58;18.00;78.10
37658;DHT22;23500;53.268;8.308;2022-10-16T09:02:01;18.00;78.00
37658;DHT22;23500;53.268;8.308;2022-10-16T09:04:41;18.00;78.10
37658;DHT22;23500;53.268;8.308;2022-10-16T09:15:27;18.00;78.30
37658;DHT22;23500;53.268;8.308;2022-10-16T09:18:12;18.00;79.00
37658;DHT22;23500;53.268;8.308;2022-10-16T09:23:15;18.00;78.40
37658;DHT22;23500;53.268;8.308;2022-10-16T09:25:47;18.00;78.30
37658;DHT22;23500;53.268;8.308;2022-10-16T09:28:14;18.00;78.40
37658;DHT22;23500;53.268;8.308;2022-10-16T09:30:41;18.00;78.20
37658;DHT22;23500;53.268;8.308;2022-10-16T09:33:07;18.00;78.20
37658;DHT22;23500;53.268;8.308;2022-10-16T09:35:39;18.00;78.20
37658;DHT22;23500;53.268;8.308;2022-10-16T09:38:06;18.00;78.40
37658;DHT22;23500;53.268;8.308;2022-10-16T09:40:34;18.00;78.50
37658;DHT22;23500;53.268;8.308;2022-10-16T09:45:41;18.00;78.30
37658;DHT22;23500;53.268;8.308;2022-10-16T09:48:12;18.00;78.30
37658;DHT22;23500;53.268;8.308;2022-10-16T09:50:38;18.10;78.60
37658;DHT22;23500;53.268;8.308;2022-10-16T09:53:14;18.00;78.70
37658;DHT22;23500;53.268;8.308;2022-10-16T09:55:50;18.10;78.70
37658;DHT22;23500;53.268;8.308;2022-10-16T09:58:17;18.10;79.90
37658;DHT22;23500;53.268;8.308;2022-10-16T10:00:49;18.10;80.30
37658;DHT22;23500;53.268;8.308;2022-10-16T10:03:35;18.20;80.40
37658;DHT22;23500;53.268;8.308;2022-10-16T10:09:06;18.20;80.30
37658;DHT22;23500;53.268;8.308;2022-10-16T10:14:21;18.30;80.20
37658;DHT22;23500;53.268;8.308;2022-10-16T10:16:48;18.30;80.10
37658;DHT22;23500;53.268;8.308;2022-10-16T10:19:22;18.30;79.90
37658;DHT22;23500;53.268;8.308;2022-10-16T10:21:49;18.40;79.90
37658;DHT22;23500;53.268;8.308;2022-10-16T10:24:17;18.40;79.70
37658;DHT22;23500;53.268;8.308;2022-10-16T10:27:00;18.40;79.60
37658;DHT22;23500;53.268;8.308;2022-10-16T10:29:31;18.40;79.40
37658;DHT22;23500;53.268;8.308;2022-10-16T10:37:49;18.50;79.10
37658;DHT22;23500;53.268;8.308;2022-10-16T10:43:10;18.50;78.90
37658;DHT22;23500;53.268;8.308;2022-10-16T10:45:52;18.50;78.90
37658;DHT22;23500;53.268;8.308;2022-10-16T10:54:47;18.50;78.80
37658;DHT22;23500;53.268;8.308;2022-10-16T11:02:48;18.60;77.90
37658;DHT22;23500;53.268;8.308;2022-10-16T11:08:06;18.60;77.30
37658;DHT22;23500;53.268;8.308;2022-10-16T11:11:00;18.60;76.80
37658;DHT22;23500;53.268;8.308;2022-10-16T11:16:09;18.60;77.70
37658;DHT22;23500;53.268;8.308;2022-10-16T11:19:02;18.60;77.20
37658;DHT22;23500;53.268;8.308;2022-10-16T11:21:36;18.60;77.40
37658;DHT22;23500;53.268;8.308;2022-10-16T11:24:10;18.70;76.70
37658;DHT22;23500;53.268;8.308;2022-10-16T11:26:41;18.70;76.60
37658;DHT22;23500;53.268;8.308;2022-10-16T11:29:23;18.70;76.40
37658;DHT22;23500;53.268;8.308;2022-10-16T11:31:57;18.70;76.30
37658;DHT22;23500;53.268;8.308;2022-10-16T11:34:53;18.70;75.90
37658;DHT22;23500;53.268;8.308;2022-10-16T11:37:25;18.70;75.70
37658;DHT22;23500;53.268;8.308;2022-10-16T11:39:54;18.80;75.30
37658;DHT22;23500;53.268;8.308;2022-10-16T11:42:37;18.80;75.00
37658;DHT22;23500;53.268;8.308;2022-10-16T11:47:44;18.80;75.70
37658;DHT22;23500;53.268;8.308;2022-10-16T11:50:31;18.80;76.50
37658;DHT22;23500;53.268;8.308;2022-10-16T11:53:16;18.80;76.90
37658;DHT22;23500;53.268;8.308;2022-10-16T11:55:44;18.80;77.00
37658;DHT22;23500;53.268;8.308;2022-10-16T11:58:32;18.80;76.40
37658;DHT22;23500;53.268;8.308;2022-10-16T12:08:34;18.80;78.10
37658;DHT22;23500;53.268;8.308;2022-10-16T12:14:34;18.80;75.50
37658;DHT22;23500;53.268;8.308;2022-10-16T12:17:24;18.80;76.30
37658;DHT22;23500;53.268;8.308;2022-10-16T12:25:43;18.80;77.20
37658;DHT22;23500;53.268;8.308;2022-10-16T12:28:21;18.80;77.40
37658;DHT22;23500;53.268;8.308;2022-10-16T12:31:02;18.80;77.30
37658;DHT22;23500;53.268;8.308;2022-10-16T12:33:40;18.80;77.30
37658;DHT22;23500;53.268;8.308;2022-10-16T12:36:14;18.80;77.30
37658;DHT22;23500;53.268;8.308;2022-10-16T12:38:50;18.80;77.30
37658;DHT22;23500;53.268;8.308;2022-10-16T12:41:29;18.80;77.30
37658;DHT22;23500;53.268;8.308;2022-10-16T12:43:56;18.90;77.20
37658;DHT22;23500;53.268;8.308;2022-10-16T13:01:52;18.80;77.40
37658;DHT22;23500;53.268;8.308;2022-10-16T13:22:17;18.90;78.10
37658;DHT22;23500;53.268;8.308;2022-10-16T13:25:09;19.00;78.10
37658;DHT22;23500;53.268;8.308;2022-10-16T13:27:59;19.00;78.10
37658;DHT22;23500;53.268;8.308;2022-10-16T13:30:31;19.00;78.20
37658;DHT22;23500;53.268;8.308;2022-10-16T13:35:37;19.00;78.00
37658;DHT22;23500;53.268;8.308;2022-10-16T13:40:37;19.00;78.00
37658;DHT22;23500;53.268;8.308;2022-10-16T13:43:12;19.00;78.00
37658;DHT22;23500;53.268;8.308;2022-10-16T13:45:38;19.00;78.00
37658;DHT22;23500;53.268;8.308;2022-10-16T13:48:06;19.00;77.90
37658;DHT22;23500;53.268;8.308;2022-10-16T13:50:34;19.10;77.90
37658;DHT22;23500;53.268;8.308;2022-10-16T13:53:15;19.10;77.90
37658;DHT22;23500;53.268;8.308;2022-10-16T13:55:41;19.10;78.60
37658;DHT22;23500;53.268;8.308;2022-10-16T13:58:15;19.10;77.80
37658;DHT22;23500;53.268;8.308;2022-10-16T14:01:02;19.10;77.80
37658;DHT22;23500;53.268;8.308;2022-10-16T14:03:30;19.10;77.80
37658;DHT22;23500;53.268;8.308;2022-10-16T14:06:00;19.10;77.70
37658;DHT22;23500;53.268;8.308;2022-10-16T14:08:27;19.10;77.70
37658;DHT22;23500;53.268;8.308;2022-10-16T14:10:58;19.20;77.80
37658;DHT22;23500;53.268;8.308;2022-10-16T14:13:45;19.20;77.70
37658;DHT22;23500;53.268;8.308;2022-10-16T14:16:17;19.20;77.70
37658;DHT22;23500;53.268;8.308;2022-10-16T14:18:46;19.20;77.70
37658;DHT22;23500;53.268;8.308;2022-10-16T14:21:16;19.20;77.60
37658;DHT22;23500;53.268;8.308;2022-10-16T14:23:42;19.20;77.60
37658;DHT22;23500;53.268;8.308;2022-10-16T14:28:35;19.20;77.60
37658;DHT22;23500;53.268;8.308;2022-10-16T14:31:02;19.20;77.40
37658;DHT22;23500;53.268;8.308;2022-10-16T14:33:40;19.20;77.30
37658;DHT22;23500;53.268;8.308;2022-10-16T14:36:13;19.20;77.20
37658;DHT22;23500;53.268;8.308;2022-10-16T14:38:47;19.20;77.20
37658;DHT22;23500;53.268;8.308;2022-10-16T14:41:13;19.20;77.20
37658;DHT22;23500;53.268;8.308;2022-10-16T14:43:42;19.20;77.20
37658;DHT22;23500;53.268;8.308;2022-10-16T14:46:16;19.20;77.10
37658;DHT22;23500;53.268;8.308;2022-10-16T14:48:48;19.20;77.20
37658;DHT22;23500;53.268;8.308;2022-10-16T14:51:16;19.20;77.20
37658;DHT22;23500;53.268;8.308;2022-10-16T14:53:42;19.20;77.20
37658;DHT22;23500;53.268;8.308;2022-10-16T14:56:20;19.20;77.20
37658;DHT22;23500;53.268;8.308;2022-10-16T14:58:46;19.20;77.10
37658;DHT22;23500;53.268;8.308;2022-10-16T15:01:12;19.20;77.10
37658;DHT22;23500;53.268;8.308;2022-10-16T15:03:38;19.20;77.10
37658;DHT22;23500;53.268;8.308;2022-10-16T15:06:10;19.20;77.10
37658;DHT22;23500;53.268;8.308;2022-10-16T15:08:37;19.20;77.10
37658;DHT22;23500;53.268;8.308;2022-10-16T15:11:02;19.20;77.00
37658;DHT22;23500;53.268;8.308;2022-10-16T15:13:28;19.20;77.00
37658;DHT22;23500;53.268;8.308;2022-10-16T15:15:54;19.20;77.00
37658;DHT22;23500;53.268;8.308;2022-10-16T15:18:20;19.20;77.00
37658;DHT22;23500;53.268;8.308;2022-10-16T15:20:47;19.20;76.90
37658;DHT22;23500;53.268;8.308;2022-10-16T15:23:21;19.20;76.90
37658;DHT22;23500;53.268;8.308;2022-10-16T15:25:49;19.20;76.90
37658;DHT22;23500;53.268;8.308;2022-10-16T15:28:16;19.20;76.90
37658;DHT22;23500;53.268;8.308;2022-10-16T15:30:43;19.20;76.90
37658;DHT22;23500;53.268;8.308;2022-10-16T15:33:16;19.20;76.90
37658;DHT22;23500;53.268;8.308;2022-10-16T15:35:42;19.10;76.80
37658;DHT22;23500;53.268;8.308;2022-10-16T15:38:12;19.10;76.80
37658;DHT22;23500;53.268;8.308;2022-10-16T15:40:38;19.10;76.70
37658;DHT22;23500;53.268;8.308;2022-10-16T15:43:04;19.10;76.60
37658;DHT22;23500;53.268;8.308;2022-10-16T15:45:29;19.10;76.60
37658;DHT22;23500;53.268;8.308;2022-10-16T15:47:55;19.10;76.60
37658;DHT22;23500;53.268;8.308;2022-10-16T15:50:21;19.10;76.60
37658;DHT22;23500;53.268;8.308;2022-10-16T15:52:46;19.10;76.50
37658;DHT22;23500;53.268;8.308;2022-10-16T15:55:13;19.10;76.30
37658;DHT22;23500;53.268;8.308;2022-10-16T15:57:39;19.10;76.20
37658;DHT22;23500;53.268;8.308;2022-10-16T16:00:17;19.10;76.10
37658;DHT22;23500;53.268;8.308;2022-10-16T16:02:50;19.10;76.20
37658;DHT22;23500;53.268;8.308;2022-10-16T16:05:16;19.10;76.20
37658;DHT22;23500;53.268;8.308;2022-10-16T16:07:42;19.10;76.10
37658;DHT22;23500;53.268;8.308;2022-10-16T16:10:10;19.10;75.40
37658;DHT22;23500;53.268;8.308;2022-10-16T16:12:36;19.10;74.90
37658;DHT22;23500;53.268;8.308;2022-10-16T16:15:07;19.00;75.00
37658;DHT22;23500;53.268;8.308;2022-10-16T16:17:34;19.00;74.20
37658;DHT22;23500;53.268;8.308;2022-10-16T16:20:00;19.00;74.50
37658;DHT22;23500;53.268;8.308;2022-10-16T16:22:27;19.00;74.50
37658;DHT22;23500;53.268;8.308;2022-10-16T16:24:53;19.00;74.00
37658;DHT22;23500;53.268;8.308;2022-10-16T16:27:18;19.00;73.90
37658;DHT22;23500;53.268;8.308;2022-10-16T16:29:46;19.00;73.90
37658;DHT22;23500;53.268;8.308;2022-10-16T16:32:12;19.00;73.70
37658;DHT22;23500;53.268;8.308;2022-10-16T16:34:38;19.00;74.00
37658;DHT22;23500;53.268;8.308;2022-10-16T16:37:03;19.00;73.90
37658;DHT22;23500;53.268;8.308;2022-10-16T16:39:29;19.00;73.50
37658;DHT22;23500;53.268;8.308;2022-10-16T16:41:58;18.90;73.70
37658;DHT22;23500;53.268;8.308;2022-10-16T16:44:28;18.90;73.80
37658;DHT22;23500;53.268;8.308;2022-10-16T16:46:53;18.90;73.70
37658;DHT22;23500;53.268;8.308;2022-10-16T16:49:20;18.90;73.50
37658;DHT22;23500;53.268;8.308;2022-10-16T16:51:45;18.90;74.00
37658;DHT22;23500;53.268;8.308;2022-10-16T16:54:11;18.90;73.80
37658;DHT22;23500;53.268;8.308;2022-10-16T16:56:38;18.90;73.70
37658;DHT22;23500;53.268;8.308;2022-10-16T16:59:04;18.80;73.80
37658;DHT22;23500;53.268;8.308;2022-10-16T17:01:30;18.80;73.80
37658;DHT22;23500;53.268;8.308;2022-10-16T17:03:57;18.80;74.60
37658;DHT22;23500;53.268;8.308;2022-10-16T17:06:26;18.80;73.80
37658;DHT22;23500;53.268;8.308;2022-10-16T17:08:52;18.80;74.00
37658;DHT22;23500;53.268;8.308;2022-10-16T17:11:24;18.80;74.30
37658;DHT22;23500;53.268;8.308;2022-10-16T17:13:50;18.80;74.50
37658;DHT22;23500;53.268;8.308;2022-10-16T17:16:18;18.80;74.50
37658;DHT22;23500;53.268;8.308;2022-10-16T17:18:43;18.80;74.20
37658;DHT22;23500;53.268;8.308;2022-10-16T17:21:10;18.80;74.10
37658;DHT22;23500;53.268;8.308;2022-10-16T17:23:36;18.70;73.90
37658;DHT22;23500;53.268;8.308;2022-10-16T17:26:06;18.70;74.00
37658;DHT22;23500;53.268;8.308;2022-10-16T17:28:32;18.70;74.30
37658;DHT22;23500;53.268;8.308;2022-10-16T17:31:10;18.70;74.20
37658;DHT22;23500;53.268;8.308;2022-10-16T17:33:36;18.70;74.00
37658;DHT22;23500;53.268;8.308;2022-10-16T17:36:01;18.70;74.00
37658;DHT22;23500;53.268;8.308;2022-10-16T17:38:27;18.70;74.10
37658;DHT22;23500;53.268;8.308;2022-10-16T17:40:53;18.70;74.10
37658;DHT22;23500;53.268;8.308;2022-10-16T17:43:18;18.70;74.10
37658;DHT22;23500;53.268;8.308;2022-10-16T17:45:44;18.60;74.10
37658;DHT22;23500;53.268;8.308;2022-10-16T17:48:09;18.60;74.00